Time;durP1;ratioP1;P1;durP2;ratioP2;P2;SDS_P1;SDS_P2;PMS_P1;PMS_P2;Temp;Humidity;BMP_temperature;BMP_pressure;BME280_temperature;BME280_humidity;BME280_pressure;Samples;Min_cycle;Max_cycle;Signal;HPM_P1;HPM_P2
2021/07/13 00:01:09;;;;;;;6.93;5.75;;;;;;;15.82;100.00;97264.59;5015522;28;20042;-84
2021/07/13 00:03:36;;;;;;;10.82;6.03;;;;;;;15.79;100.00;97255.19;5013076;28;20488;-83
2021/07/13 00:06:03;;;;;;;8.05;5.88;;;;;;;15.87;100.00;97247.94;5010707;28;20042;-82
2021/07/13 00:08:30;;;;;;;14.23;6.00;;;;;;;15.79;100.00;97244.28;5012789;28;20050;-83
2021/07/13 00:10:57;;;;;;;7.00;5.70;;;;;;;15.76;100.00;97239.53;5013164;28;20046;-83
2021/07/13 00:13:23;;;;;;;8.38;6.00;;;;;;;15.76;100.00;97236.00;5012449;28;20053;-83
2021/07/13 00:15:50;;;;;;;8.70;5.80;;;;;;;15.66;100.00;97234.63;5012918;28;20125;-84
2021/07/13 00:18:18;;;;;;;11.30;6.18;;;;;;;15.58;100.00;97236.41;5012276;28;20129;-83
2021/07/13 00:20:44;;;;;;;11.73;5.55;;;;;;;15.58;100.00;97243.81;5012813;28;20241;-83
2021/07/13 00:23:11;;;;;;;9.80;6.47;;;;;;;15.59;100.00;97240.72;5012722;28;20046;-83
2021/07/13 00:25:38;;;;;;;15.20;5.90;;;;;;;15.35;100.00;97237.41;5012442;28;20057;-85
2021/07/13 00:28:05;;;;;;;24.48;6.35;;;;;;;15.18;100.00;97232.31;5012769;28;20049;-83
2021/07/13 00:30:32;;;;;;;16.33;5.82;;;;;;;15.26;100.00;97237.59;4998251;28;20049;-84
2021/07/13 00:32:59;;;;;;;11.70;5.85;;;;;;;15.21;100.00;97242.53;5014861;28;20050;-83
2021/07/13 00:35:26;;;;;;;13.45;5.82;;;;;;;15.17;100.00;97236.22;5012806;28;20101;-84
2021/07/13 00:37:53;;;;;;;20.02;6.20;;;;;;;15.18;100.00;97246.75;5015737;28;20418;-83
2021/07/13 00:40:21;;;;;;;18.48;5.93;;;;;;;15.21;100.00;97245.25;5017368;28;20777;-82
2021/07/13 00:42:50;;;;;;;15.10;6.15;;;;;;;15.22;100.00;97246.84;5016388;28;20057;-82
2021/07/13 00:45:17;;;;;;;7.32;5.18;;;;;;;15.31;100.00;97258.34;5014871;28;20048;-83
2021/07/13 00:47:48;;;;;;;14.15;5.70;;;;;;;15.34;100.00;97246.72;5015977;28;20042;-83
2021/07/13 00:50:16;;;;;;;14.52;5.45;;;;;;;15.34;100.00;97246.72;5014468;28;20367;-84
2021/07/13 00:52:43;;;;;;;14.93;5.63;;;;;;;15.34;100.00;97242.06;5017362;28;20045;-83
2021/07/13 00:55:11;;;;;;;15.02;5.53;;;;;;;15.36;100.00;97236.25;5015996;28;20054;-81
2021/07/13 00:57:39;;;;;;;17.45;4.97;;;;;;;15.36;100.00;97230.78;5015755;28;20053;-81
2021/07/13 01:00:09;;;;;;;10.77;5.07;;;;;;;15.36;100.00;97236.25;5016486;28;20081;-83
2021/07/13 01:02:35;;;;;;;16.45;4.88;;;;;;;15.32;100.00;97238.91;5017010;28;20049;-82
2021/07/13 01:05:07;;;;;;;13.52;5.72;;;;;;;15.26;100.00;97223.97;5016764;28;20109;-83
2021/07/13 01:07:49;;;;;;;8.35;5.55;;;;;;;15.29;100.00;97219.72;5018290;28;20097;-84
2021/07/13 01:10:37;;;;;;;9.18;6.07;;;;;;;15.32;100.00;97202.66;5018013;28;20053;-82
2021/07/13 01:13:28;;;;;;;9.10;6.05;;;;;;;15.30;100.00;97224.06;5018345;28;20112;-83
2021/07/13 01:16:12;;;;;;;7.45;6.15;;;;;;;15.17;100.00;97208.94;5019182;28;20050;-84
2021/07/13 01:18:46;;;;;;;16.00;6.47;;;;;;;15.19;100.00;97226.53;5029534;28;20107;-82
2021/07/13 01:21:55;;;;;;;12.65;5.38;;;;;;;15.21;100.00;97217.97;5037189;28;20045;-83
2021/07/13 01:24:37;;;;;;;13.48;5.22;;;;;;;15.19;100.00;97220.28;5030099;28;20053;-84
2021/07/13 01:27:26;;;;;;;11.50;5.22;;;;;;;15.18;100.00;97213.22;5038474;28;20034;-83
2021/07/13 01:29:56;;;;;;;16.67;5.30;;;;;;;15.12;100.00;97220.13;5023523;28;20045;-83
2021/07/13 01:32:26;;;;;;;11.95;5.25;;;;;;;15.08;100.00;97209.13;5041876;28;20145;-84
2021/07/13 01:35:00;;;;;;;11.77;4.50;;;;;;;15.03;100.00;97206.66;5029802;28;20034;-84
2021/07/13 01:37:30;;;;;;;11.93;5.10;;;;;;;14.78;100.00;97186.22;5018197;28;20037;-85
2021/07/13 01:39:59;;;;;;;12.68;5.30;;;;;;;14.89;100.00;97198.94;5012470;28;20088;-83
2021/07/13 01:42:27;;;;;;;15.65;5.60;;;;;;;14.90;100.00;97194.28;5019306;28;20050;-84
2021/07/13 01:44:57;;;;;;;9.25;5.55;;;;;;;14.91;100.00;97193.94;5018792;28;20046;-84
2021/07/13 01:47:24;;;;;;;12.38;5.88;;;;;;;14.89;100.00;97179.84;5019303;28;20088;-85
2021/07/13 01:49:51;;;;;;;10.43;5.93;;;;;;;14.90;100.00;97191.56;5018532;28;20053;-85
2021/07/13 01:52:18;;;;;;;11.77;6.05;;;;;;;14.86;100.00;97180.59;5021641;28;20858;-84
2021/07/13 01:54:50;;;;;;;13.65;6.63;;;;;;;14.84;100.00;97177.41;5028171;28;20038;-85
2021/07/13 01:57:16;;;;;;;16.83;6.30;;;;;;;14.83;100.00;97178.56;5015887;28;20073;-85
2021/07/13 01:59:46;;;;;;;13.15;5.30;;;;;;;14.82;100.00;97179.69;5015419;28;20085;-83
2021/07/13 02:02:14;;;;;;;14.25;5.22;;;;;;;14.74;100.00;97172.50;5015560;28;20053;-84
2021/07/13 02:04:41;;;;;;;12.05;5.35;;;;;;;14.66;100.00;97173.47;5017196;28;20050;-84
2021/07/13 02:07:11;;;;;;;12.18;5.05;;;;;;;14.57;100.00;97177.50;5021645;28;20060;-84
2021/07/13 02:09:41;;;;;;;22.52;6.10;;;;;;;14.55;100.00;97180.59;5020055;28;20045;-84
2021/07/13 02:12:08;;;;;;;15.60;5.03;;;;;;;14.55;100.00;97177.88;5018657;28;20042;-84
2021/07/13 02:14:35;;;;;;;17.25;4.93;;;;;;;14.50;100.00;97174.63;5015180;28;20046;-84
2021/07/13 02:17:03;;;;;;;13.77;5.30;;;;;;;14.58;100.00;97179.09;5010840;28;20495;-85
2021/07/13 02:19:30;;;;;;;16.15;5.10;;;;;;;14.63;100.00;97159.78;5011847;28;20038;-83
2021/07/13 02:21:57;;;;;;;14.32;5.32;;;;;;;14.67;100.00;97169.59;5014197;28;20057;-83
2021/07/13 02:24:23;;;;;;;16.48;5.25;;;;;;;14.70;100.00;97166.19;5012712;28;20060;-83
2021/07/13 02:26:57;;;;;;;10.88;5.10;;;;;;;14.69;100.00;97158.34;5015881;28;20044;-84
2021/07/13 02:29:41;;;;;;;10.63;4.97;;;;;;;14.65;100.00;97158.28;4996793;28;20688;-84
2021/07/13 02:32:18;;;;;;;9.73;5.18;;;;;;;14.63;100.00;97155.13;5014012;28;20041;-81
2021/07/13 02:34:46;;;;;;;10.07;5.25;;;;;;;14.63;100.00;97160.56;5016313;28;20101;-84
2021/07/13 02:37:15;;;;;;;14.43;5.15;;;;;;;14.67;100.00;97152.47;5018716;28;20045;-84
2021/07/13 02:39:43;;;;;;;13.40;4.80;;;;;;;14.58;100.00;97158.09;5012804;23;20061;-81
2021/07/13 02:42:11;;;;;;;11.45;5.20;;;;;;;14.52;100.00;97150.53;5018175;28;20294;-83
2021/07/13 02:44:38;;;;;;;12.85;5.15;;;;;;;14.53;100.00;97150.19;5015926;28;20046;-83
2021/07/13 02:47:11;;;;;;;12.77;4.90;;;;;;;14.56;100.00;97160.38;5018322;28;20045;-82
2021/07/13 02:49:45;;;;;;;14.30;5.03;;;;;;;14.50;100.00;97150.91;5016097;28;20053;-81
2021/07/13 02:54:54;;;;;;;24.10;5.25;;;;;;;14.44;100.00;97157.75;5007811;28;20426;-78
2021/07/13 02:57:22;;;;;;;16.25;4.85;;;;;;;14.44;100.00;97165.91;5002728;28;20031;-78
2021/07/13 02:59:54;;;;;;;16.35;5.30;;;;;;;14.48;100.00;97161.34;4991886;28;20049;-77
2021/07/13 03:02:22;;;;;;;14.70;5.65;;;;;;;14.46;100.00;97157.38;5007662;28;20048;-78
2021/07/13 03:04:50;;;;;;;16.05;5.70;;;;;;;14.42;100.00;97160.03;4992698;28;20069;-77
2021/07/13 03:07:19;;;;;;;11.50;5.72;;;;;;;14.42;100.00;97176.38;4992105;28;20050;-78
2021/07/13 03:09:47;;;;;;;13.98;5.68;;;;;;;14.43;100.00;97167.03;4973382;28;20053;-77
2021/07/13 03:12:15;;;;;;;13.50;5.85;;;;;;;14.44;100.00;97165.13;5007036;28;20061;-77
2021/07/13 03:14:43;;;;;;;15.77;5.60;;;;;;;14.41;100.00;97163.09;4983340;28;20177;-78
2021/07/13 03:17:12;;;;;;;14.02;5.63;;;;;;;14.38;100.00;97164.59;4980968;28;20046;-78
2021/07/13 03:19:43;;;;;;;16.98;5.63;;;;;;;14.32;100.00;97164.06;4987188;28;20045;-78
2021/07/13 03:22:18;;;;;;;17.48;5.60;;;;;;;14.34;100.00;97159.06;4977662;28;20050;-78
2021/07/13 03:24:47;;;;;;;12.95;5.00;;;;;;;14.33;100.00;97146.59;4992245;28;20050;-78
2021/07/13 03:27:17;;;;;;;12.38;5.53;;;;;;;14.36;100.00;97150.53;4974134;28;20187;-78
2021/07/13 03:29:48;;;;;;;14.25;5.38;;;;;;;14.42;100.00;97142.91;4974327;28;20120;-78
2021/07/13 03:32:16;;;;;;;8.25;6.18;;;;;;;14.39;100.00;97140.88;4972613;28;20042;-79
2021/07/13 03:34:47;;;;;;;13.50;6.05;;;;;;;14.42;100.00;97142.91;4959163;28;20145;-79
2021/07/13 03:37:14;;;;;;;11.82;6.72;;;;;;;14.34;100.00;97139.22;4976614;28;20447;-78
2021/07/13 03:39:43;;;;;;;16.50;6.47;;;;;;;14.37;100.00;97145.88;4975944;28;20042;-78
2021/07/13 03:42:10;;;;;;;12.48;6.28;;;;;;;14.34;100.00;97147.38;4992411;28;20054;-78
2021/07/13 03:44:37;;;;;;;13.18;6.53;;;;;;;14.30;100.00;97141.00;4973622;28;20053;-78
2021/07/13 03:47:03;;;;;;;16.00;6.80;;;;;;;14.31;100.00;97142.63;4990795;28;20058;-78
2021/07/13 03:49:33;;;;;;;10.90;6.90;;;;;;;14.34;100.00;97128.31;4989984;28;20054;-78
2021/07/13 03:52:00;;;;;;;13.85;6.72;;;;;;;14.33;100.00;97132.16;4991900;28;20047;-77
2021/07/13 03:54:26;;;;;;;13.63;5.97;;;;;;;14.31;100.00;97143.44;4977171;28;20042;-78
2021/07/13 03:56:53;;;;;;;17.73;6.60;;;;;;;14.35;100.00;97154.38;4999415;28;20482;-79
2021/07/13 03:59:19;;;;;;;11.35;6.15;;;;;;;14.48;100.00;97160.56;4977375;28;20054;-79
2021/07/13 04:01:46;;;;;;;16.60;6.13;;;;;;;14.64;100.00;97166.78;4973410;28;20137;-79
2021/07/13 04:04:14;;;;;;;10.10;6.15;;;;;;;14.72;100.00;97177.50;4972732;28;20042;-78
2021/07/13 04:06:44;;;;;;;12.15;5.85;;;;;;;14.82;100.00;97170.72;4973333;28;20126;-78
2021/07/13 04:09:16;;;;;;;9.80;5.63;;;;;;;14.88;100.00;97167.41;4971170;28;20046;-78
2021/07/13 04:11:44;;;;;;;12.45;5.97;;;;;;;14.95;100.00;97164.03;4955744;28;20073;-78
2021/07/13 04:14:12;;;;;;;10.68;5.10;;;;;;;14.93;100.00;97147.25;4975201;28;20158;-80
2021/07/13 04:16:39;;;;;;;13.32;6.00;;;;;;;14.99;100.00;97151.28;4977077;28;20059;-76
2021/07/13 04:19:07;;;;;;;13.40;6.53;;;;;;;15.12;100.00;97154.69;4973782;28;20050;-76
2021/07/13 04:21:36;;;;;;;15.35;6.93;;;;;;;15.14;100.00;97164.09;4973356;28;20049;-76
2021/07/13 04:24:03;;;;;;;13.13;7.05;;;;;;;15.23;100.00;97158.41;4974026;28;20047;-76
2021/07/13 04:26:29;;;;;;;16.48;7.18;;;;;;;15.34;100.00;97154.00;4975635;28;20057;-78
2021/07/13 04:29:00;;;;;;;18.13;7.68;;;;;;;15.38;100.00;97154.88;4976516;28;20047;-78
2021/07/13 04:31:28;;;;;;;12.13;6.55;;;;;;;15.45;100.00;97150.41;4960843;28;20043;-80
2021/07/13 04:33:55;;;;;;;15.50;6.50;;;;;;;15.63;100.00;97152.69;4959112;28;20089;-78
2021/07/13 04:36:24;;;;;;;14.80;6.82;;;;;;;15.78;100.00;97141.69;4969907;28;20043;-79
2021/07/13 04:38:51;;;;;;;11.32;6.72;;;;;;;15.86;100.00;97153.53;4979417;28;20088;-77
2021/07/13 04:41:20;;;;;;;11.70;6.65;;;;;;;16.00;100.00;97140.94;4979630;28;20046;-79
2021/07/13 04:43:47;;;;;;;14.00;6.45;;;;;;;16.20;100.00;97144.44;4954168;28;20050;-78
2021/07/13 04:46:13;;;;;;;8.52;5.85;;;;;;;16.31;100.00;97131.75;4984158;28;20057;-78
2021/07/13 04:48:40;;;;;;;10.70;5.82;;;;;;;16.48;100.00;97142.19;4964313;28;20046;-78
2021/07/13 04:51:07;;;;;;;10.32;6.03;;;;;;;16.55;100.00;97147.81;4978683;28;20098;-78
2021/07/13 04:53:36;;;;;;;8.68;5.43;;;;;;;16.64;100.00;97140.16;4978232;28;20105;-78
2021/07/13 04:56:03;;;;;;;9.85;4.82;;;;;;;16.73;100.00;97137.16;4960587;28;20051;-78
2021/07/13 04:58:29;;;;;;;8.50;4.50;;;;;;;16.85;100.00;97144.38;4961363;28;20259;-80
2021/07/13 05:00:59;;;;;;;9.05;4.75;;;;;;;16.99;100.00;97137.19;4962557;28;20521;-80
2021/07/13 05:03:25;;;;;;;8.75;4.43;;;;;;;17.07;100.00;97118.91;4979015;28;20051;-81
2021/07/13 05:05:55;;;;;;;8.48;4.65;;;;;;;17.28;100.00;97130.16;4963867;28;20129;-77
2021/07/13 05:08:22;;;;;;;6.32;4.70;;;;;;;17.40;100.00;97127.97;4979725;28;20046;-81
2021/07/13 05:10:52;;;;;;;11.32;4.28;;;;;;;17.50;100.00;97120.28;4984190;28;20061;-79
2021/07/13 05:13:21;;;;;;;9.52;3.85;;;;;;;17.68;100.00;97121.34;4964823;28;20387;-80
2021/07/13 05:15:48;;;;;;;12.10;4.05;;;;;;;17.88;100.00;97125.47;4959444;28;20050;-78
2021/07/13 05:18:15;;;;;;;9.73;3.55;;;;;;;17.90;100.00;97112.97;4958933;28;20035;-79
2021/07/13 05:20:48;;;;;;;10.65;3.88;;;;;;;17.92;100.00;97112.59;4960454;28;20150;-78
2021/07/13 05:23:15;;;;;;;11.23;3.80;;;;;;;17.84;100.00;97110.94;4946857;28;20062;-78
2021/07/13 05:25:42;;;;;;;7.20;3.55;;;;;;;18.04;100.00;97110.38;4982327;28;20508;-79
2021/07/13 05:28:10;;;;;;;5.82;3.70;;;;;;;18.16;100.00;97101.09;4976938;28;20054;-79
2021/07/13 05:30:39;;;;;;;14.52;3.97;;;;;;;18.32;100.00;97092.66;4978290;28;20145;-79
2021/07/13 05:33:08;;;;;;;9.02;3.40;;;;;;;18.48;100.00;97099.47;4995928;28;20042;-79
2021/07/13 05:35:35;;;;;;;6.55;3.17;;;;;;;18.57;100.00;97099.16;4996593;28;20042;-81
2021/07/13 05:38:07;;;;;;;7.68;3.58;;;;;;;18.62;100.00;97091.38;4980818;28;20046;-80
2021/07/13 05:40:35;;;;;;;6.15;3.70;;;;;;;18.85;100.00;97102.09;4963761;28;20046;-81
2021/07/13 05:43:02;;;;;;;8.15;3.80;;;;;;;18.95;100.00;97103.34;4962043;28;20056;-79
2021/07/13 05:45:29;;;;;;;12.55;3.55;;;;;;;19.14;100.00;97103.06;4980238;28;20042;-79
2021/07/13 05:47:55;;;;;;;8.75;3.53;;;;;;;19.30;100.00;97098.84;4997789;28;20042;-79
2021/07/13 05:50:22;;;;;;;8.88;3.40;;;;;;;19.53;100.00;97108.78;4999630;28;20066;-78
2021/07/13 05:52:49;;;;;;;5.40;3.45;;;;;;;19.56;100.00;97106.03;4988746;28;20070;-78
2021/07/13 05:55:15;;;;;;;4.75;3.08;;;;;;;19.90;100.00;97109.31;4961498;28;20050;-78
2021/07/13 05:57:44;;;;;;;9.57;3.28;;;;;;;19.91;100.00;97102.66;4978493;28;20050;-79
2021/07/13 06:00:12;;;;;;;7.65;3.13;;;;;;;20.08;100.00;97107.38;4996423;28;20055;-79
2021/07/13 06:02:38;;;;;;;7.60;2.97;;;;;;;20.25;100.00;97095.69;4981318;28;20061;-79
2021/07/13 06:05:05;;;;;;;6.28;3.10;;;;;;;20.20;100.00;97109.78;4978825;28;20054;-79
2021/07/13 06:07:32;;;;;;;5.07;2.60;;;;;;;20.36;100.00;97107.47;4978756;28;20543;-80
2021/07/13 06:09:58;;;;;;;6.65;2.90;;;;;;;20.36;100.00;97110.22;4979675;28;20042;-82
2021/07/13 06:12:25;;;;;;;5.53;2.88;;;;;;;20.27;100.00;97103.53;4983842;28;20050;-78
2021/07/13 06:14:52;;;;;;;7.22;3.10;;;;;;;20.46;100.00;97116.91;5002894;28;20038;-79
2021/07/13 06:17:22;;;;;;;4.30;3.13;;;;;;;20.39;100.00;97112.19;4981659;28;20042;-79
2021/07/13 06:19:49;;;;;;;6.03;3.58;;;;;;;20.49;100.00;97125.16;4975296;28;20057;-80
2021/07/13 06:22:16;;;;;;;7.20;3.20;;;;;;;20.62;100.00;97111.78;4992788;28;20042;-80
2021/07/13 06:24:42;;;;;;;14.55;4.07;;;;;;;20.72;100.00;97110.25;4975986;28;20046;-80
2021/07/13 06:27:09;;;;;;;8.32;3.50;;;;;;;20.76;100.00;97111.00;4996483;28;20050;-80
2021/07/13 06:29:35;;;;;;;6.97;3.70;;;;;;;20.97;100.00;97116.50;4983006;28;20050;-80
2021/07/13 06:32:02;;;;;;;10.75;3.67;;;;;;;20.97;100.00;97117.28;4993728;28;20046;-79
2021/07/13 06:34:29;;;;;;;15.05;9.20;;;;;;;21.06;100.00;97114.94;4973912;28;20519;-81
2021/07/13 06:36:56;;;;;;;10.40;6.30;;;;;;;21.22;100.00;97106.25;4960114;28;20052;-80
2021/07/13 06:39:23;;;;;;;6.90;3.30;;;;;;;21.33;100.00;97098.78;4959305;28;20050;-80
2021/07/13 06:41:50;;;;;;;14.90;7.15;;;;;;;21.25;100.00;97104.69;4976504;28;20102;-81
2021/07/13 06:44:17;;;;;;;7.57;5.07;;;;;;;21.48;100.00;97092.03;4977149;28;20043;-80
2021/07/13 06:46:44;;;;;;;5.90;3.42;;;;;;;21.71;100.00;97088.78;4961245;28;20054;-80
2021/07/13 06:49:10;;;;;;;8.02;2.50;;;;;;;21.93;100.00;97079.25;4995550;28;20258;-80
2021/07/13 06:51:37;;;;;;;4.88;2.17;;;;;;;21.92;100.00;97088.72;4976542;28;20046;-80
2021/07/13 06:54:04;;;;;;;7.05;2.10;;;;;;;21.65;100.00;97076.63;4976225;28;20047;-80
2021/07/13 06:56:31;;;;;;;7.68;2.40;;;;;;;21.89;100.00;97078.47;4976229;28;20050;-80
2021/07/13 06:58:57;;;;;;;4.22;2.58;;;;;;;21.87;100.00;97063.53;4992839;28;20046;-80
2021/07/13 07:01:26;;;;;;;5.28;2.67;;;;;;;21.80;100.00;97078.13;4992595;28;20050;-80
2021/07/13 07:03:53;;;;;;;4.03;2.45;;;;;;;21.82;100.00;97070.22;4975052;28;20045;-81
2021/07/13 07:06:20;;;;;;;3.55;2.30;;;;;;;22.06;100.00;97071.31;4976678;28;20434;-79
2021/07/13 07:08:50;;;;;;;7.43;2.75;;;;;;;22.16;100.00;97073.22;4975179;28;20077;-80
2021/07/13 07:11:17;;;;;;;5.45;2.47;;;;;;;22.35;100.00;97075.41;4959896;28;20054;-80
2021/07/13 07:13:44;;;;;;;7.15;2.58;;;;;;;22.20;100.00;97068.44;4975148;28;20434;-80
2021/07/13 07:16:11;;;;;;;5.47;2.67;;;;;;;22.80;100.00;97068.78;4979262;28;20054;-81
2021/07/13 07:18:39;;;;;;;4.13;2.58;;;;;;;22.79;100.00;97058.94;4965167;28;20046;-81
2021/07/13 07:21:06;;;;;;;5.90;2.55;;;;;;;23.14;100.00;97052.28;4978313;28;20433;-79
2021/07/13 07:23:34;;;;;;;8.93;2.90;;;;;;;22.91;100.00;97055.66;4976223;28;20049;-79
2021/07/13 07:26:00;;;;;;;7.80;2.92;;;;;;;23.01;100.00;97047.69;4994330;28;20112;-80
2021/07/13 07:28:29;;;;;;;7.43;2.42;;;;;;;23.38;100.00;97039.41;4976228;28;20062;-79
2021/07/13 07:30:55;;;;;;;8.40;2.60;;;;;;;23.51;100.00;97038.44;4975867;28;20070;-80
2021/07/13 07:33:22;;;;;;;3.58;2.40;;;;;;;23.54;100.00;97032.09;4959223;28;20070;-80
2021/07/13 07:35:48;;;;;;;6.25;2.83;;;;;;;23.78;100.00;97021.91;4993560;28;20490;-80
2021/07/13 07:38:15;;;;;;;4.97;2.50;;;;;;;24.12;100.00;97024.59;4975217;28;20046;-79
2021/07/13 07:40:42;;;;;;;5.63;2.90;;;;;;;23.82;100.00;97022.63;4981251;28;20049;-80
2021/07/13 07:43:08;;;;;;;5.90;2.50;;;;;;;23.97;100.00;97015.72;4994232;28;20050;-80
2021/07/13 07:45:36;;;;;;;7.85;2.90;;;;;;;24.16;100.00;97014.25;4959384;28;20498;-80
2021/07/13 07:48:03;;;;;;;4.97;2.83;;;;;;;24.14;100.00;97017.44;4981038;28;20039;-80
2021/07/13 07:50:33;;;;;;;4.30;2.80;;;;;;;23.79;100.00;97020.72;4978762;28;20047;-81
2021/07/13 07:53:00;;;;;;;6.47;3.15;;;;;;;23.69;100.00;97032.69;4981137;28;20678;-80
2021/07/13 07:55:27;;;;;;;10.50;2.70;;;;;;;23.61;100.00;97025.69;4980412;28;20077;-80
2021/07/13 07:57:55;;;;;;;11.02;2.70;;;;;;;23.34;100.00;97022.84;4977558;28;20063;-80
2021/07/13 08:00:22;;;;;;;6.47;2.70;;;;;;;23.45;100.00;97025.50;4977893;28;20061;-80
2021/07/13 08:02:49;;;;;;;10.88;2.88;;;;;;;23.36;100.00;97026.00;4977344;28;20042;-80
2021/07/13 08:05:16;;;;;;;7.70;2.88;;;;;;;23.66;100.00;97028.00;4979192;28;20241;-79
2021/07/13 08:07:44;;;;;;;6.07;2.80;;;;;;;23.08;100.00;97034.56;4977624;28;20314;-80
2021/07/13 08:10:13;;;;;;;7.03;2.97;;;;;;;23.05;100.00;97031.88;4960757;28;20046;-80
2021/07/13 08:12:42;;;;;;;7.70;3.08;;;;;;;23.25;100.00;97041.09;4956633;28;20077;-79
2021/07/13 08:15:10;;;;;;;6.85;2.95;;;;;;;23.47;100.00;97042.44;4973668;28;20463;-80
2021/07/13 08:17:37;;;;;;;4.50;2.70;;;;;;;23.83;100.00;97040.00;4956758;28;20101;-80
2021/07/13 08:20:06;;;;;;;5.60;3.05;;;;;;;24.22;100.00;97033.94;4956547;28;20043;-80
2021/07/13 08:22:36;;;;;;;7.68;2.80;;;;;;;24.27;100.00;97038.97;4987367;28;20043;-82
2021/07/13 08:25:04;;;;;;;6.55;2.58;;;;;;;24.67;100.00;97030.41;4940839;28;20051;-80
2021/07/13 08:27:31;;;;;;;4.25;2.70;;;;;;;24.80;100.00;97033.41;4973599;28;20051;-80
2021/07/13 08:30:00;;;;;;;7.18;2.90;;;;;;;24.71;100.00;97028.38;4973900;28;20042;-79
2021/07/13 08:32:26;;;;;;;6.82;2.95;;;;;;;24.52;100.00;97031.09;4940521;28;20050;-80
2021/07/13 08:34:53;;;;;;;5.57;2.72;;;;;;;25.07;100.00;97027.75;4956061;28;20098;-80
2021/07/13 08:37:21;;;;;;;6.15;3.13;;;;;;;25.22;100.00;97029.81;4973875;28;20094;-80
2021/07/13 08:39:48;;;;;;;9.43;3.13;;;;;;;25.03;100.00;97021.50;4956414;28;20046;-79
2021/07/13 08:42:17;;;;;;;8.23;3.05;;;;;;;25.01;100.00;97019.13;4973950;28;20043;-81
2021/07/13 08:44:47;;;;;;;8.98;3.10;;;;;;;25.64;100.00;97008.78;4974802;28;20529;-80
2021/07/13 08:47:17;;;;;;;5.05;3.33;;;;;;;25.39;100.00;97000.19;4958034;28;20490;-80
2021/07/13 08:49:45;;;;;;;7.68;3.55;;;;;;;25.20;100.00;97004.53;4974017;28;20046;-80
2021/07/13 08:52:13;;;;;;;7.63;3.90;;;;;;;25.27;100.00;97004.38;4973924;28;20053;-81
2021/07/13 08:54:40;;;;;;;5.20;3.28;;;;;;;25.39;100.00;96998.22;4956822;28;20043;-81
2021/07/13 08:57:09;;;;;;;6.57;3.80;;;;;;;25.20;100.00;96993.44;4966848;28;20061;-81
2021/07/13 08:59:59;;;;;;;10.25;3.90;;;;;;;25.97;100.00;96982.69;4961790;28;20055;-83
2021/07/13 09:02:28;;;;;;;10.48;3.83;;;;;;;26.49;100.00;96982.63;4979163;28;20046;-82
2021/07/13 09:04:54;;;;;;;6.25;4.25;;;;;;;26.53;100.00;96980.53;4961097;28;20039;-82
2021/07/13 09:07:21;;;;;;;7.80;4.07;;;;;;;26.45;100.00;96973.63;4960336;28;20050;-81
2021/07/13 09:09:51;;;;;;;9.27;4.32;;;;;;;26.51;100.00;96971.09;4977327;28;20053;-83
2021/07/13 09:12:23;;;;;;;9.93;4.53;;;;;;;26.32;100.00;96970.00;4959078;28;20070;-81
2021/07/13 09:14:53;;;;;;;8.32;4.18;;;;;;;26.26;100.00;96971.72;4959624;28;20119;-83
2021/07/13 09:17:32;;;;;;;7.07;4.38;;;;;;;26.29;100.00;96970.06;4960097;28;20053;-83
2021/07/13 09:20:22;;;;;;;10.98;4.70;;;;;;;26.06;100.00;96968.22;4944338;28;20418;-82
2021/07/13 09:23:04;;;;;;;8.77;4.40;;;;;;;26.59;100.00;96964.91;4959529;28;20047;-81
2021/07/13 09:25:59;;;;;;;16.20;4.88;;;;;;;26.36;100.00;96970.66;4972752;28;20047;-81
2021/07/13 09:28:26;;;;;;;7.30;4.50;;;;;;;26.72;100.00;96975.28;4960293;28;20069;-81
2021/07/13 09:30:58;;;;;;;7.97;4.68;;;;;;;26.99;100.00;96968.25;4959485;28;20047;-80
2021/07/13 09:33:25;;;;;;;8.20;4.78;;;;;;;27.33;100.00;96967.69;4957823;28;20110;-80
2021/07/13 09:36:12;;;;;;;7.60;4.70;;;;;;;27.23;100.00;96961.19;4959113;28;20054;-81
2021/07/13 09:38:45;;;;;;;7.40;4.50;;;;;;;28.15;100.00;96963.22;4958717;28;20053;-81
2021/07/13 09:41:20;;;;;;;5.72;4.65;;;;;;;28.52;100.00;96956.03;4976141;28;20039;-81
2021/07/13 09:44:03;;;;;;;6.10;4.35;;;;;;;29.74;100.00;96938.84;4976940;28;20565;-81
2021/07/13 09:46:46;;;;;;;8.48;4.13;;;;;;;30.23;100.00;96936.09;4960501;28;20419;-82
2021/07/13 09:49:27;;;;;;;7.53;4.13;;;;;;;31.47;100.00;96945.50;4978072;28;20057;-82
2021/07/13 09:51:55;;;;;;;7.65;4.00;;;;;;;31.70;100.00;96941.25;4976668;28;20057;-81
2021/07/13 09:54:35;;;;;;;6.18;3.75;;;;;;;32.00;100.00;96935.38;4960259;28;20057;-81
2021/07/13 09:57:17;;;;;;;6.22;3.92;;;;;;;31.44;100.00;96943.63;4960322;28;20301;-83
2021/07/13 09:59:47;;;;;;;7.38;4.60;;;;;;;29.35;100.00;96937.53;4959844;28;20046;-81
2021/07/13 10:02:17;;;;;;;7.97;4.18;;;;;;;29.73;100.00;96934.50;4959617;28;20153;-81
2021/07/13 10:04:46;;;;;;;5.18;3.85;;;;;;;29.17;100.00;96936.63;4959076;28;20091;-81
2021/07/13 10:07:17;;;;;;;6.40;4.70;;;;;;;28.91;100.00;96935.97;4959456;28;20402;-81
2021/07/13 10:09:55;;;;;;;6.03;4.18;;;;;;;29.43;100.00;96929.69;4958717;28;20054;-82
2021/07/13 10:12:26;;;;;;;7.20;4.20;;;;;;;30.59;100.00;96922.22;4959517;28;20414;-82
2021/07/13 10:14:56;;;;;;;6.38;4.72;;;;;;;30.42;100.00;96931.34;4975338;28;20414;-81
2021/07/13 10:17:25;;;;;;;6.78;4.47;;;;;;;31.59;100.00;96910.94;4962964;28;20043;-82
2021/07/13 10:20:08;;;;;;;8.05;4.38;;;;;;;32.21;100.00;96930.03;4958349;28;20073;-82
2021/07/13 10:22:42;;;;;;;5.25;4.18;;;;;;;32.39;96.94;96924.31;4958599;28;20069;-82
2021/07/13 10:25:09;;;;;;;6.15;3.90;;;;;;;32.93;76.13;96914.75;4976883;28;20051;-82
2021/07/13 10:27:48;;;;;;;5.78;4.35;;;;;;;33.75;71.67;96907.06;4958220;28;20074;-81
2021/07/13 10:30:21;;;;;;;7.13;4.32;;;;;;;32.07;79.66;96903.47;4975890;28;20071;-83
2021/07/13 10:32:47;;;;;;;5.45;4.05;;;;;;;34.13;72.86;96905.34;4959423;28;20415;-81
2021/07/13 10:35:25;;;;;;;4.97;4.10;;;;;;;34.68;57.78;96903.31;4958666;28;20047;-80
2021/07/13 10:38:21;;;;;;;7.40;3.88;;;;;;;35.45;56.46;96908.25;4958484;28;20046;-80
2021/07/13 10:40:48;;;;;;;5.10;4.50;;;;;;;32.83;73.46;96913.28;4977380;28;20491;-82
2021/07/13 10:43:22;;;;;;;5.45;4.10;;;;;;;35.05;62.33;96907.09;4977768;28;20047;-80
2021/07/13 10:46:12;;;;;;;8.87;4.23;;;;;;;33.33;67.86;96917.03;4960407;28;20110;-79
2021/07/13 10:48:39;;;;;;;6.95;3.80;;;;;;;33.34;68.28;96912.97;4978140;28;20046;-79
2021/07/13 10:51:08;;;;;;;4.95;4.00;;;;;;;33.83;63.32;96913.84;4978290;28;20039;-80
2021/07/13 10:53:39;;;;;;;5.45;3.72;;;;;;;32.98;59.80;96928.09;4960604;28;20050;-78
2021/07/13 10:56:26;;;;;;;7.25;3.70;;;;;;;33.45;72.93;96918.78;4962480;28;20086;-81
2021/07/13 10:58:55;;;;;;;4.85;3.65;;;;;;;31.85;84.49;96923.28;4987428;28;20163;-80
2021/07/13 11:01:30;;;;;;;5.07;3.83;;;;;;;32.60;77.46;96926.03;4961534;28;20047;-79
2021/07/13 11:04:02;;;;;;;4.57;3.80;;;;;;;32.06;82.29;96923.56;4958396;28;20513;-81
2021/07/13 11:06:42;;;;;;;5.53;3.95;;;;;;;33.98;60.20;96911.00;4976448;28;20039;-79
2021/07/13 11:09:32;;;;;;;3.45;3.15;;;;;;;34.46;57.12;96911.44;4959516;28;20458;-80
2021/07/13 11:12:08;;;;;;;5.68;3.70;;;;;;;34.35;56.40;96900.81;4943164;28;20043;-80
2021/07/13 11:15:00;;;;;;;4.93;3.03;;;;;;;35.02;47.94;96912.91;4960313;28;20046;-81
2021/07/13 11:17:38;;;;;;;4.07;2.63;;;;;;;35.47;41.96;96909.28;4943860;28;20054;-80
2021/07/13 11:20:09;;;;;;;3.20;2.70;;;;;;;35.46;42.34;96904.91;4975719;28;20490;-81
2021/07/13 11:22:41;;;;;;;3.38;2.42;;;;;;;35.87;42.35;96896.34;4958932;28;20047;-81
2021/07/13 11:25:23;;;;;;;3.03;2.33;;;;;;;36.34;41.28;96889.97;4968056;28;20102;-80
2021/07/13 11:28:00;;;;;;;4.93;2.60;;;;;;;35.72;42.11;96884.44;4975269;28;20054;-80
2021/07/13 11:30:26;;;;;;;2.95;2.50;;;;;;;35.07;44.89;96891.75;4958726;28;20046;-79
2021/07/13 11:33:22;;;;;;;4.60;2.65;;;;;;;35.53;41.79;96873.53;4962064;28;20058;-82
2021/07/13 11:35:53;;;;;;;3.08;2.40;;;;;;;34.06;43.14;96884.06;4977966;28;20046;-80
2021/07/13 11:38:35;;;;;;;5.20;2.60;;;;;;;33.80;45.46;96866.28;4961899;28;20498;-82